Terminal Aerodrome Forecast
Issued by NWS Portland, OR

Home | Current Version | Previous Version | Text Only | Print | Product List | Glossary On
Versions: 1 2 3 4 5 6 7 8 9 10 11 12 13 14 15
000
FTUS46 KPQR 252323
TAFAST
TAF
KAST 252323Z 2600/2624 30012KT P6SM SKC
     FM260500 29008KT 3/4SM BR OVC004
     FM261700 30005KT 2SM BR OVC009
     FM262000 30010KT P6SM OVC015=

USA.gov is the U.S. government's official web portal to all federal, state and local government web resources and services.